sensor_id;sensor_type;location;lat;lon;timestamp;P1;durP1;ratioP1;P2;durP2;ratioP2
80384;SDS011;69702;44.618;33.604;2024-03-17T00:00:17;17.10;;;10.25;;
80384;SDS011;69702;44.618;33.604;2024-03-17T00:02:44;18.25;;;9.80;;
80384;SDS011;69702;44.618;33.604;2024-03-17T00:05:10;16.73;;;9.25;;
80384;SDS011;69702;44.618;33.604;2024-03-17T00:07:37;14.23;;;8.97;;
80384;SDS011;69702;44.618;33.604;2024-03-17T00:10:03;15.43;;;9.60;;
80384;SDS011;69702;44.618;33.604;2024-03-17T00:12:29;15.88;;;9.45;;
80384;SDS011;69702;44.618;33.604;2024-03-17T00:14:56;15.25;;;9.00;;
80384;SDS011;69702;44.618;33.604;2024-03-17T00:17:22;14.10;;;8.70;;
80384;SDS011;69702;44.618;33.604;2024-03-17T00:19:48;14.23;;;9.60;;
80384;SDS011;69702;44.618;33.604;2024-03-17T00:22:14;14.80;;;9.10;;
80384;SDS011;69702;44.618;33.604;2024-03-17T00:24:42;14.70;;;8.68;;
80384;SDS011;69702;44.618;33.604;2024-03-17T00:27:08;14.75;;;9.40;;
80384;SDS011;69702;44.618;33.604;2024-03-17T00:29:35;14.90;;;8.90;;
80384;SDS011;69702;44.618;33.604;2024-03-17T00:32:01;14.60;;;8.70;;
80384;SDS011;69702;44.618;33.604;2024-03-17T00:34:27;15.23;;;9.38;;
80384;SDS011;69702;44.618;33.604;2024-03-17T00:36:53;13.88;;;8.60;;
80384;SDS011;69702;44.618;33.604;2024-03-17T00:39:20;15.25;;;8.90;;
80384;SDS011;69702;44.618;33.604;2024-03-17T00:41:46;16.23;;;9.57;;
80384;SDS011;69702;44.618;33.604;2024-03-17T00:44:12;15.95;;;9.38;;
80384;SDS011;69702;44.618;33.604;2024-03-17T00:46:38;16.70;;;9.77;;
80384;SDS011;69702;44.618;33.604;2024-03-17T00:49:05;14.43;;;9.32;;
80384;SDS011;69702;44.618;33.604;2024-03-17T00:51:31;16.40;;;9.57;;
80384;SDS011;69702;44.618;33.604;2024-03-17T00:53:57;18.02;;;10.73;;
80384;SDS011;69702;44.618;33.604;2024-03-17T00:56:23;17.45;;;10.77;;
80384;SDS011;69702;44.618;33.604;2024-03-17T00:58:49;18.38;;;10.85;;
80384;SDS011;69702;44.618;33.604;2024-03-17T01:01:17;17.98;;;11.65;;
80384;SDS011;69702;44.618;33.604;2024-03-17T01:03:45;19.87;;;11.70;;
80384;SDS011;69702;44.618;33.604;2024-03-17T01:06:11;18.35;;;11.63;;
80384;SDS011;69702;44.618;33.604;2024-03-17T01:08:37;18.55;;;12.02;;
80384;SDS011;69702;44.618;33.604;2024-03-17T01:11:04;19.42;;;12.38;;
80384;SDS011;69702;44.618;33.604;2024-03-17T01:13:34;19.58;;;12.18;;
80384;SDS011;69702;44.618;33.604;2024-03-17T01:16:07;22.37;;;12.90;;
80384;SDS011;69702;44.618;33.604;2024-03-17T01:18:33;23.30;;;12.77;;
80384;SDS011;69702;44.618;33.604;2024-03-17T01:21:03;22.17;;;13.10;;
80384;SDS011;69702;44.618;33.604;2024-03-17T01:23:29;22.20;;;13.68;;
80384;SDS011;69702;44.618;33.604;2024-03-17T01:25:55;19.70;;;11.95;;
80384;SDS011;69702;44.618;33.604;2024-03-17T01:28:21;19.80;;;12.55;;
80384;SDS011;69702;44.618;33.604;2024-03-17T01:30:47;20.67;;;11.75;;
80384;SDS011;69702;44.618;33.604;2024-03-17T01:33:13;21.23;;;12.73;;
80384;SDS011;69702;44.618;33.604;2024-03-17T01:35:39;20.50;;;12.32;;
80384;SDS011;69702;44.618;33.604;2024-03-17T01:38:06;20.30;;;12.43;;
80384;SDS011;69702;44.618;33.604;2024-03-17T01:40:32;20.57;;;12.37;;
80384;SDS011;69702;44.618;33.604;2024-03-17T01:42:58;17.92;;;11.38;;
80384;SDS011;69702;44.618;33.604;2024-03-17T01:45:30;16.70;;;10.27;;
80384;SDS011;69702;44.618;33.604;2024-03-17T01:47:58;18.33;;;10.40;;
80384;SDS011;69702;44.618;33.604;2024-03-17T01:50:31;16.25;;;9.65;;
80384;SDS011;69702;44.618;33.604;2024-03-17T01:53:00;17.47;;;10.47;;
80384;SDS011;69702;44.618;33.604;2024-03-17T01:55:34;16.55;;;10.07;;
80384;SDS011;69702;44.618;33.604;2024-03-17T01:58:04;17.98;;;10.45;;
80384;SDS011;69702;44.618;33.604;2024-03-17T02:00:33;17.33;;;10.80;;
80384;SDS011;69702;44.618;33.604;2024-03-17T02:03:05;19.70;;;12.40;;
80384;SDS011;69702;44.618;33.604;2024-03-17T02:05:35;18.07;;;11.83;;
80384;SDS011;69702;44.618;33.604;2024-03-17T02:08:04;17.95;;;11.68;;
80384;SDS011;69702;44.618;33.604;2024-03-17T02:10:31;18.95;;;11.27;;
80384;SDS011;69702;44.618;33.604;2024-03-17T02:12:57;16.42;;;10.02;;
80384;SDS011;69702;44.618;33.604;2024-03-17T02:15:24;14.88;;;10.13;;
80384;SDS011;69702;44.618;33.604;2024-03-17T02:18:10;14.40;;;9.30;;
80384;SDS011;69702;44.618;33.604;2024-03-17T02:20:36;16.50;;;9.48;;
80384;SDS011;69702;44.618;33.604;2024-03-17T02:23:21;16.50;;;9.82;;
80384;SDS011;69702;44.618;33.604;2024-03-17T02:25:47;15.18;;;9.85;;
80384;SDS011;69702;44.618;33.604;2024-03-17T02:28:14;15.48;;;10.15;;
80384;SDS011;69702;44.618;33.604;2024-03-17T02:30:40;15.40;;;10.00;;
80384;SDS011;69702;44.618;33.604;2024-03-17T02:33:06;18.45;;;10.50;;
80384;SDS011;69702;44.618;33.604;2024-03-17T02:35:32;19.17;;;9.48;;
80384;SDS011;69702;44.618;33.604;2024-03-17T02:37:58;15.30;;;9.70;;
80384;SDS011;69702;44.618;33.604;2024-03-17T02:40:24;15.50;;;10.05;;
80384;SDS011;69702;44.618;33.604;2024-03-17T02:42:50;18.63;;;10.17;;
80384;SDS011;69702;44.618;33.604;2024-03-17T02:45:16;18.50;;;10.35;;
80384;SDS011;69702;44.618;33.604;2024-03-17T02:47:42;17.08;;;9.73;;
80384;SDS011;69702;44.618;33.604;2024-03-17T02:50:08;16.52;;;9.73;;
80384;SDS011;69702;44.618;33.604;2024-03-17T02:52:35;19.77;;;10.30;;
80384;SDS011;69702;44.618;33.604;2024-03-17T02:55:01;17.52;;;10.48;;
80384;SDS011;69702;44.618;33.604;2024-03-17T02:57:27;20.48;;;11.88;;
80384;SDS011;69702;44.618;33.604;2024-03-17T02:59:58;17.23;;;9.65;;
80384;SDS011;69702;44.618;33.604;2024-03-17T03:02:25;18.35;;;10.57;;
80384;SDS011;69702;44.618;33.604;2024-03-17T03:04:51;15.37;;;9.87;;
80384;SDS011;69702;44.618;33.604;2024-03-17T03:07:17;16.17;;;9.10;;
80384;SDS011;69702;44.618;33.604;2024-03-17T03:09:44;14.93;;;10.10;;
80384;SDS011;69702;44.618;33.604;2024-03-17T03:12:10;17.13;;;10.73;;
80384;SDS011;69702;44.618;33.604;2024-03-17T03:14:36;15.32;;;9.45;;
80384;SDS011;69702;44.618;33.604;2024-03-17T03:17:02;18.00;;;9.70;;
80384;SDS011;69702;44.618;33.604;2024-03-17T03:19:29;14.27;;;9.30;;
80384;SDS011;69702;44.618;33.604;2024-03-17T03:21:58;15.45;;;9.55;;
80384;SDS011;69702;44.618;33.604;2024-03-17T03:24:24;18.73;;;9.93;;
80384;SDS011;69702;44.618;33.604;2024-03-17T03:26:50;16.98;;;10.15;;
80384;SDS011;69702;44.618;33.604;2024-03-17T03:29:16;15.03;;;9.53;;
80384;SDS011;69702;44.618;33.604;2024-03-17T03:31:42;17.35;;;9.80;;
80384;SDS011;69702;44.618;33.604;2024-03-17T03:34:08;17.48;;;10.38;;
80384;SDS011;69702;44.618;33.604;2024-03-17T03:36:35;16.90;;;9.52;;
80384;SDS011;69702;44.618;33.604;2024-03-17T03:39:02;18.20;;;10.73;;
80384;SDS011;69702;44.618;33.604;2024-03-17T03:41:31;18.53;;;11.20;;
80384;SDS011;69702;44.618;33.604;2024-03-17T03:44:01;20.98;;;11.70;;
80384;SDS011;69702;44.618;33.604;2024-03-17T03:46:27;18.83;;;10.93;;
80384;SDS011;69702;44.618;33.604;2024-03-17T03:48:53;19.60;;;11.38;;
80384;SDS011;69702;44.618;33.604;2024-03-17T03:51:19;18.85;;;11.23;;
80384;SDS011;69702;44.618;33.604;2024-03-17T03:53:45;21.07;;;12.07;;
80384;SDS011;69702;44.618;33.604;2024-03-17T03:56:11;19.77;;;11.63;;
80384;SDS011;69702;44.618;33.604;2024-03-17T03:58:38;20.27;;;12.55;;
80384;SDS011;69702;44.618;33.604;2024-03-17T04:01:06;18.10;;;10.65;;
80384;SDS011;69702;44.618;33.604;2024-03-17T04:03:33;20.35;;;11.95;;
80384;SDS011;69702;44.618;33.604;2024-03-17T04:06:04;19.80;;;11.53;;
80384;SDS011;69702;44.618;33.604;2024-03-17T04:08:35;17.42;;;9.82;;
80384;SDS011;69702;44.618;33.604;2024-03-17T04:11:02;15.82;;;9.60;;
80384;SDS011;69702;44.618;33.604;2024-03-17T04:13:28;17.10;;;9.90;;
80384;SDS011;69702;44.618;33.604;2024-03-17T04:15:59;16.10;;;10.13;;
80384;SDS011;69702;44.618;33.604;2024-03-17T04:18:26;16.63;;;9.87;;
80384;SDS011;69702;44.618;33.604;2024-03-17T04:20:57;16.30;;;9.68;;
80384;SDS011;69702;44.618;33.604;2024-03-17T04:23:27;14.00;;;9.30;;
80384;SDS011;69702;44.618;33.604;2024-03-17T04:25:53;15.98;;;9.48;;
80384;SDS011;69702;44.618;33.604;2024-03-17T04:28:19;13.98;;;8.50;;
80384;SDS011;69702;44.618;33.604;2024-03-17T04:30:46;15.97;;;9.53;;
80384;SDS011;69702;44.618;33.604;2024-03-17T04:33:12;15.85;;;10.50;;
80384;SDS011;69702;44.618;33.604;2024-03-17T04:35:39;15.07;;;8.95;;
80384;SDS011;69702;44.618;33.604;2024-03-17T04:38:05;16.58;;;10.38;;
80384;SDS011;69702;44.618;33.604;2024-03-17T04:40:39;15.77;;;9.52;;
80384;SDS011;69702;44.618;33.604;2024-03-17T04:43:07;15.05;;;10.10;;
80384;SDS011;69702;44.618;33.604;2024-03-17T04:45:33;19.95;;;12.40;;
80384;SDS011;69702;44.618;33.604;2024-03-17T04:48:00;17.85;;;10.32;;
80384;SDS011;69702;44.618;33.604;2024-03-17T04:50:26;17.85;;;10.13;;
80384;SDS011;69702;44.618;33.604;2024-03-17T04:53:00;18.45;;;9.57;;
80384;SDS011;69702;44.618;33.604;2024-03-17T04:55:27;15.87;;;9.77;;
80384;SDS011;69702;44.618;33.604;2024-03-17T04:57:54;15.98;;;9.80;;
80384;SDS011;69702;44.618;33.604;2024-03-17T05:00:20;17.83;;;10.35;;
80384;SDS011;69702;44.618;33.604;2024-03-17T05:02:46;16.58;;;10.30;;
80384;SDS011;69702;44.618;33.604;2024-03-17T05:05:13;16.52;;;9.68;;
80384;SDS011;69702;44.618;33.604;2024-03-17T05:07:39;14.80;;;9.57;;
80384;SDS011;69702;44.618;33.604;2024-03-17T05:10:05;16.35;;;11.18;;
80384;SDS011;69702;44.618;33.604;2024-03-17T05:12:32;17.52;;;10.55;;
80384;SDS011;69702;44.618;33.604;2024-03-17T05:14:58;16.15;;;10.15;;
80384;SDS011;69702;44.618;33.604;2024-03-17T05:17:24;17.08;;;10.25;;
80384;SDS011;69702;44.618;33.604;2024-03-17T05:19:50;18.02;;;10.55;;
80384;SDS011;69702;44.618;33.604;2024-03-17T05:22:17;15.52;;;10.05;;
80384;SDS011;69702;44.618;33.604;2024-03-17T05:24:43;16.83;;;9.95;;
80384;SDS011;69702;44.618;33.604;2024-03-17T05:27:09;17.15;;;11.13;;
80384;SDS011;69702;44.618;33.604;2024-03-17T05:29:35;16.63;;;10.10;;
80384;SDS011;69702;44.618;33.604;2024-03-17T05:32:04;15.37;;;9.37;;
80384;SDS011;69702;44.618;33.604;2024-03-17T05:34:31;17.38;;;10.50;;
80384;SDS011;69702;44.618;33.604;2024-03-17T05:36:58;17.27;;;11.05;;
80384;SDS011;69702;44.618;33.604;2024-03-17T05:39:25;15.18;;;10.07;;
80384;SDS011;69702;44.618;33.604;2024-03-17T05:41:51;15.40;;;10.60;;
80384;SDS011;69702;44.618;33.604;2024-03-17T05:44:17;17.00;;;9.75;;
80384;SDS011;69702;44.618;33.604;2024-03-17T05:46:44;16.15;;;9.93;;
80384;SDS011;69702;44.618;33.604;2024-03-17T05:49:10;15.27;;;9.40;;
80384;SDS011;69702;44.618;33.604;2024-03-17T05:51:36;14.50;;;9.57;;
80384;SDS011;69702;44.618;33.604;2024-03-17T05:54:02;14.98;;;9.80;;
80384;SDS011;69702;44.618;33.604;2024-03-17T05:56:29;17.77;;;11.57;;
80384;SDS011;69702;44.618;33.604;2024-03-17T05:58:55;16.95;;;10.40;;
80384;SDS011;69702;44.618;33.604;2024-03-17T06:01:21;17.45;;;10.75;;
80384;SDS011;69702;44.618;33.604;2024-03-17T06:03:48;16.23;;;11.32;;
80384;SDS011;69702;44.618;33.604;2024-03-17T06:06:15;16.90;;;10.35;;
80384;SDS011;69702;44.618;33.604;2024-03-17T06:08:41;15.73;;;9.98;;
80384;SDS011;69702;44.618;33.604;2024-03-17T06:11:07;16.60;;;10.85;;
80384;SDS011;69702;44.618;33.604;2024-03-17T06:13:34;17.10;;;11.02;;
80384;SDS011;69702;44.618;33.604;2024-03-17T06:16:03;16.67;;;11.30;;
80384;SDS011;69702;44.618;33.604;2024-03-17T06:18:31;20.60;;;13.90;;
80384;SDS011;69702;44.618;33.604;2024-03-17T06:20:58;17.80;;;11.15;;
80384;SDS011;69702;44.618;33.604;2024-03-17T06:23:25;18.38;;;11.57;;
80384;SDS011;69702;44.618;33.604;2024-03-17T06:25:55;17.85;;;11.80;;
80384;SDS011;69702;44.618;33.604;2024-03-17T06:28:21;17.63;;;10.70;;
80384;SDS011;69702;44.618;33.604;2024-03-17T06:30:55;15.15;;;10.50;;
80384;SDS011;69702;44.618;33.604;2024-03-17T06:33:25;14.85;;;9.77;;
80384;SDS011;69702;44.618;33.604;2024-03-17T06:35:54;15.50;;;9.85;;
80384;SDS011;69702;44.618;33.604;2024-03-17T06:38:21;14.93;;;9.55;;
80384;SDS011;69702;44.618;33.604;2024-03-17T06:40:47;15.15;;;9.52;;
80384;SDS011;69702;44.618;33.604;2024-03-17T06:43:17;18.20;;;10.55;;
80384;SDS011;69702;44.618;33.604;2024-03-17T06:45:44;15.55;;;10.10;;
80384;SDS011;69702;44.618;33.604;2024-03-17T06:48:10;15.75;;;9.77;;
80384;SDS011;69702;44.618;33.604;2024-03-17T06:50:37;15.10;;;9.98;;
80384;SDS011;69702;44.618;33.604;2024-03-17T06:53:06;16.10;;;9.90;;
80384;SDS011;69702;44.618;33.604;2024-03-17T06:55:34;16.27;;;10.48;;
80384;SDS011;69702;44.618;33.604;2024-03-17T06:58:00;14.90;;;10.00;;
80384;SDS011;69702;44.618;33.604;2024-03-17T07:00:26;15.85;;;10.43;;
80384;SDS011;69702;44.618;33.604;2024-03-17T07:02:53;15.57;;;9.90;;
80384;SDS011;69702;44.618;33.604;2024-03-17T07:05:19;15.13;;;10.40;;
80384;SDS011;69702;44.618;33.604;2024-03-17T07:07:45;13.38;;;9.77;;
80384;SDS011;69702;44.618;33.604;2024-03-17T07:10:12;13.50;;;9.23;;
80384;SDS011;69702;44.618;33.604;2024-03-17T07:12:38;12.50;;;9.05;;
80384;SDS011;69702;44.618;33.604;2024-03-17T07:15:05;14.93;;;9.73;;
80384;SDS011;69702;44.618;33.604;2024-03-17T07:17:32;13.63;;;9.02;;
80384;SDS011;69702;44.618;33.604;2024-03-17T07:19:59;12.82;;;8.52;;
80384;SDS011;69702;44.618;33.604;2024-03-17T07:22:26;11.55;;;6.90;;
80384;SDS011;69702;44.618;33.604;2024-03-17T07:24:52;9.40;;;5.88;;
80384;SDS011;69702;44.618;33.604;2024-03-17T07:27:26;11.13;;;6.85;;
80384;SDS011;69702;44.618;33.604;2024-03-17T07:29:53;10.23;;;7.28;;
80384;SDS011;69702;44.618;33.604;2024-03-17T07:32:19;11.23;;;7.68;;
80384;SDS011;69702;44.618;33.604;2024-03-17T07:34:45;10.43;;;7.75;;
80384;SDS011;69702;44.618;33.604;2024-03-17T07:37:11;8.15;;;5.38;;
80384;SDS011;69702;44.618;33.604;2024-03-17T07:39:37;7.07;;;5.10;;
80384;SDS011;69702;44.618;33.604;2024-03-17T07:42:04;8.15;;;5.63;;
80384;SDS011;69702;44.618;33.604;2024-03-17T07:44:30;8.07;;;5.38;;
80384;SDS011;69702;44.618;33.604;2024-03-17T07:47:00;6.40;;;4.70;;
80384;SDS011;69702;44.618;33.604;2024-03-17T07:49:30;6.18;;;4.63;;
80384;SDS011;69702;44.618;33.604;2024-03-17T07:51:57;7.40;;;5.00;;
80384;SDS011;69702;44.618;33.604;2024-03-17T07:54:24;6.80;;;4.75;;
80384;SDS011;69702;44.618;33.604;2024-03-17T07:56:52;8.43;;;6.30;;
80384;SDS011;69702;44.618;33.604;2024-03-17T07:59:18;11.15;;;7.60;;
80384;SDS011;69702;44.618;33.604;2024-03-17T08:01:44;10.07;;;6.88;;
80384;SDS011;69702;44.618;33.604;2024-03-17T08:04:11;10.30;;;7.00;;
80384;SDS011;69702;44.618;33.604;2024-03-17T08:06:38;10.68;;;7.40;;
80384;SDS011;69702;44.618;33.604;2024-03-17T08:09:06;11.55;;;6.60;;
80384;SDS011;69702;44.618;33.604;2024-03-17T08:11:37;12.63;;;9.52;;
80384;SDS011;69702;44.618;33.604;2024-03-17T08:14:04;11.65;;;7.28;;
80384;SDS011;69702;44.618;33.604;2024-03-17T08:16:31;11.07;;;7.95;;
80384;SDS011;69702;44.618;33.604;2024-03-17T08:18:57;10.15;;;7.32;;
80384;SDS011;69702;44.618;33.604;2024-03-17T08:21:23;10.15;;;6.63;;
80384;SDS011;69702;44.618;33.604;2024-03-17T08:23:55;11.48;;;6.93;;
80384;SDS011;69702;44.618;33.604;2024-03-17T08:26:21;10.85;;;7.55;;
80384;SDS011;69702;44.618;33.604;2024-03-17T08:28:47;11.40;;;7.15;;
80384;SDS011;69702;44.618;33.604;2024-03-17T08:31:13;17.35;;;12.93;;
80384;SDS011;69702;44.618;33.604;2024-03-17T08:33:41;17.00;;;11.60;;
80384;SDS011;69702;44.618;33.604;2024-03-17T08:36:08;19.73;;;13.20;;
80384;SDS011;69702;44.618;33.604;2024-03-17T08:38:36;23.67;;;17.42;;
80384;SDS011;69702;44.618;33.604;2024-03-17T08:41:06;20.98;;;14.65;;
80384;SDS011;69702;44.618;33.604;2024-03-17T08:43:33;22.00;;;15.82;;
80384;SDS011;69702;44.618;33.604;2024-03-17T08:46:03;21.92;;;15.93;;
80384;SDS011;69702;44.618;33.604;2024-03-17T08:48:32;24.63;;;16.92;;
80384;SDS011;69702;44.618;33.604;2024-03-17T08:51:00;20.98;;;14.07;;
80384;SDS011;69702;44.618;33.604;2024-03-17T08:53:27;20.73;;;13.13;;
80384;SDS011;69702;44.618;33.604;2024-03-17T08:55:54;22.38;;;15.00;;
80384;SDS011;69702;44.618;33.604;2024-03-17T08:58:21;22.23;;;15.88;;
80384;SDS011;69702;44.618;33.604;2024-03-17T09:00:48;23.58;;;15.93;;
80384;SDS011;69702;44.618;33.604;2024-03-17T09:03:14;22.45;;;14.40;;
80384;SDS011;69702;44.618;33.604;2024-03-17T09:05:41;21.23;;;13.30;;
80384;SDS011;69702;44.618;33.604;2024-03-17T09:08:23;22.75;;;15.07;;
80384;SDS011;69702;44.618;33.604;2024-03-17T09:10:51;24.40;;;17.08;;
80384;SDS011;69702;44.618;33.604;2024-03-17T09:13:19;19.60;;;14.60;;
80384;SDS011;69702;44.618;33.604;2024-03-17T09:15:52;25.60;;;17.98;;
80384;SDS011;69702;44.618;33.604;2024-03-17T09:18:19;19.00;;;13.32;;
80384;SDS011;69702;44.618;33.604;2024-03-17T09:20:46;20.88;;;14.07;;
80384;SDS011;69702;44.618;33.604;2024-03-17T09:23:12;19.27;;;13.43;;
80384;SDS011;69702;44.618;33.604;2024-03-17T09:25:39;19.70;;;13.13;;
80384;SDS011;69702;44.618;33.604;2024-03-17T09:28:06;20.70;;;13.40;;
80384;SDS011;69702;44.618;33.604;2024-03-17T09:30:32;19.52;;;12.40;;
80384;SDS011;69702;44.618;33.604;2024-03-17T09:32:59;20.75;;;14.02;;
80384;SDS011;69702;44.618;33.604;2024-03-17T09:35:25;18.77;;;13.35;;
80384;SDS011;69702;44.618;33.604;2024-03-17T09:37:51;20.98;;;13.15;;
80384;SDS011;69702;44.618;33.604;2024-03-17T09:40:17;22.35;;;13.25;;
80384;SDS011;69702;44.618;33.604;2024-03-17T09:42:43;25.02;;;14.27;;
80384;SDS011;69702;44.618;33.604;2024-03-17T09:45:09;23.15;;;14.73;;
80384;SDS011;69702;44.618;33.604;2024-03-17T09:47:36;25.27;;;15.98;;
80384;SDS011;69702;44.618;33.604;2024-03-17T09:50:03;22.08;;;14.20;;
80384;SDS011;69702;44.618;33.604;2024-03-17T09:52:30;22.05;;;14.20;;
80384;SDS011;69702;44.618;33.604;2024-03-17T09:55:06;24.77;;;15.30;;
80384;SDS011;69702;44.618;33.604;2024-03-17T09:57:39;21.83;;;13.90;;
80384;SDS011;69702;44.618;33.604;2024-03-17T10:00:09;23.27;;;14.52;;
80384;SDS011;69702;44.618;33.604;2024-03-17T10:02:43;24.92;;;14.55;;
80384;SDS011;69702;44.618;33.604;2024-03-17T10:05:24;23.77;;;14.77;;
80384;SDS011;69702;44.618;33.604;2024-03-17T10:07:51;27.15;;;17.05;;
80384;SDS011;69702;44.618;33.604;2024-03-17T10:10:18;25.67;;;16.05;;
80384;SDS011;69702;44.618;33.604;2024-03-17T10:12:49;25.58;;;14.82;;
80384;SDS011;69702;44.618;33.604;2024-03-17T10:15:17;20.73;;;13.32;;
80384;SDS011;69702;44.618;33.604;2024-03-17T10:17:44;21.95;;;13.95;;
80384;SDS011;69702;44.618;33.604;2024-03-17T10:20:17;20.58;;;13.48;;
80384;SDS011;69702;44.618;33.604;2024-03-17T10:23:03;19.77;;;12.55;;
80384;SDS011;69702;44.618;33.604;2024-03-17T10:25:32;17.92;;;11.20;;
80384;SDS011;69702;44.618;33.604;2024-03-17T10:27:59;20.27;;;12.55;;
80384;SDS011;69702;44.618;33.604;2024-03-17T10:30:27;18.42;;;12.02;;
80384;SDS011;69702;44.618;33.604;2024-03-17T10:32:58;20.88;;;12.85;;
80384;SDS011;69702;44.618;33.604;2024-03-17T10:37:53;20.40;;;13.20;;
80384;SDS011;69702;44.618;33.604;2024-03-17T10:40:23;20.97;;;13.50;;
80384;SDS011;69702;44.618;33.604;2024-03-17T10:42:50;20.63;;;13.05;;
80384;SDS011;69702;44.618;33.604;2024-03-17T10:45:17;23.17;;;15.27;;
80384;SDS011;69702;44.618;33.604;2024-03-17T10:47:43;19.52;;;12.43;;
80384;SDS011;69702;44.618;33.604;2024-03-17T10:50:17;15.98;;;10.45;;
80384;SDS011;69702;44.618;33.604;2024-03-17T10:52:47;15.70;;;10.55;;
80384;SDS011;69702;44.618;33.604;2024-03-17T10:55:24;16.42;;;9.40;;
80384;SDS011;69702;44.618;33.604;2024-03-17T10:57:54;14.63;;;9.90;;
80384;SDS011;69702;44.618;33.604;2024-03-17T11:00:24;19.58;;;13.52;;
80384;SDS011;69702;44.618;33.604;2024-03-17T11:02:55;11.68;;;8.32;;
80384;SDS011;69702;44.618;33.604;2024-03-17T11:05:25;12.00;;;8.40;;
80384;SDS011;69702;44.618;33.604;2024-03-17T11:07:55;11.02;;;7.57;;
80384;SDS011;69702;44.618;33.604;2024-03-17T11:10:28;10.63;;;7.15;;
80384;SDS011;69702;44.618;33.604;2024-03-17T11:12:55;9.63;;;7.03;;
80384;SDS011;69702;44.618;33.604;2024-03-17T11:18:29;13.43;;;8.97;;
80384;SDS011;69702;44.618;33.604;2024-03-17T11:21:01;10.45;;;6.95;;
80384;SDS011;69702;44.618;33.604;2024-03-17T11:23:36;11.75;;;8.07;;
80384;SDS011;69702;44.618;33.604;2024-03-17T11:26:03;7.03;;;5.03;;
80384;SDS011;69702;44.618;33.604;2024-03-17T11:29:03;9.23;;;6.38;;
80384;SDS011;69702;44.618;33.604;2024-03-17T11:36:54;12.90;;;8.85;;
80384;SDS011;69702;44.618;33.604;2024-03-17T11:39:45;8.35;;;5.75;;
80384;SDS011;69702;44.618;33.604;2024-03-17T11:42:22;7.50;;;5.15;;
80384;SDS011;69702;44.618;33.604;2024-03-17T11:47:41;8.13;;;5.32;;
80384;SDS011;69702;44.618;33.604;2024-03-17T11:50:09;7.70;;;5.07;;
80384;SDS011;69702;44.618;33.604;2024-03-17T11:52:36;7.25;;;4.90;;
80384;SDS011;69702;44.618;33.604;2024-03-17T11:55:04;7.03;;;4.60;;
80384;SDS011;69702;44.618;33.604;2024-03-17T11:57:30;7.30;;;4.70;;
80384;SDS011;69702;44.618;33.604;2024-03-17T11:59:57;7.03;;;4.35;;
80384;SDS011;69702;44.618;33.604;2024-03-17T12:02:26;8.07;;;5.40;;
80384;SDS011;69702;44.618;33.604;2024-03-17T12:04:53;6.80;;;4.80;;
80384;SDS011;69702;44.618;33.604;2024-03-17T12:07:22;6.20;;;4.60;;
80384;SDS011;69702;44.618;33.604;2024-03-17T12:09:52;11.33;;;7.30;;
80384;SDS011;69702;44.618;33.604;2024-03-17T12:12:20;6.88;;;4.60;;
80384;SDS011;69702;44.618;33.604;2024-03-17T12:14:47;8.15;;;4.90;;
80384;SDS011;69702;44.618;33.604;2024-03-17T12:17:21;8.82;;;5.82;;
80384;SDS011;69702;44.618;33.604;2024-03-17T12:19:48;7.55;;;4.90;;
80384;SDS011;69702;44.618;33.604;2024-03-17T12:22:18;8.65;;;5.30;;
80384;SDS011;69702;44.618;33.604;2024-03-17T12:24:48;6.65;;;4.65;;
80384;SDS011;69702;44.618;33.604;2024-03-17T12:27:18;8.43;;;5.57;;
80384;SDS011;69702;44.618;33.604;2024-03-17T12:29:46;8.05;;;4.97;;
80384;SDS011;69702;44.618;33.604;2024-03-17T12:34:43;8.07;;;5.03;;
80384;SDS011;69702;44.618;33.604;2024-03-17T12:37:23;10.23;;;7.18;;
80384;SDS011;69702;44.618;33.604;2024-03-17T12:39:54;7.70;;;4.80;;
80384;SDS011;69702;44.618;33.604;2024-03-17T12:42:23;7.65;;;5.95;;
80384;SDS011;69702;44.618;33.604;2024-03-17T12:44:51;6.75;;;4.95;;
80384;SDS011;69702;44.618;33.604;2024-03-17T12:47:19;7.35;;;4.75;;
80384;SDS011;69702;44.618;33.604;2024-03-17T12:49:56;8.10;;;5.28;;
80384;SDS011;69702;44.618;33.604;2024-03-17T12:52:32;7.03;;;5.03;;
80384;SDS011;69702;44.618;33.604;2024-03-17T12:55:00;9.32;;;7.20;;
80384;SDS011;69702;44.618;33.604;2024-03-17T12:57:45;7.63;;;4.88;;
80384;SDS011;69702;44.618;33.604;2024-03-17T13:00:30;9.88;;;6.57;;
80384;SDS011;69702;44.618;33.604;2024-03-17T13:03:06;8.25;;;5.57;;
80384;SDS011;69702;44.618;33.604;2024-03-17T13:05:34;7.78;;;5.63;;
80384;SDS011;69702;44.618;33.604;2024-03-17T13:08:00;8.60;;;5.10;;
80384;SDS011;69702;44.618;33.604;2024-03-17T13:10:28;8.88;;;6.18;;
80384;SDS011;69702;44.618;33.604;2024-03-17T13:12:58;10.50;;;8.75;;
80384;SDS011;69702;44.618;33.604;2024-03-17T13:15:29;11.23;;;7.25;;
80384;SDS011;69702;44.618;33.604;2024-03-17T13:17:57;9.60;;;8.02;;
80384;SDS011;69702;44.618;33.604;2024-03-17T13:20:24;14.20;;;9.90;;
80384;SDS011;69702;44.618;33.604;2024-03-17T13:22:50;10.02;;;7.05;;
80384;SDS011;69702;44.618;33.604;2024-03-17T13:25:22;10.02;;;7.75;;
80384;SDS011;69702;44.618;33.604;2024-03-17T13:27:53;13.82;;;10.38;;
80384;SDS011;69702;44.618;33.604;2024-03-17T13:30:20;11.20;;;8.48;;
80384;SDS011;69702;44.618;33.604;2024-03-17T13:32:49;10.05;;;7.60;;
80384;SDS011;69702;44.618;33.604;2024-03-17T13:35:22;7.47;;;5.47;;
80384;SDS011;69702;44.618;33.604;2024-03-17T13:37:49;6.70;;;4.80;;
80384;SDS011;69702;44.618;33.604;2024-03-17T13:40:20;9.30;;;7.10;;
80384;SDS011;69702;44.618;33.604;2024-03-17T13:42:47;7.95;;;5.78;;
80384;SDS011;69702;44.618;33.604;2024-03-17T13:45:15;12.27;;;7.95;;
80384;SDS011;69702;44.618;33.604;2024-03-17T13:47:45;11.32;;;7.68;;
80384;SDS011;69702;44.618;33.604;2024-03-17T13:50:13;11.15;;;7.07;;
80384;SDS011;69702;44.618;33.604;2024-03-17T13:52:40;8.85;;;6.20;;
80384;SDS011;69702;44.618;33.604;2024-03-17T13:55:08;7.20;;;4.78;;
80384;SDS011;69702;44.618;33.604;2024-03-17T13:57:48;9.35;;;6.60;;
80384;SDS011;69702;44.618;33.604;2024-03-17T14:00:17;7.85;;;5.43;;
80384;SDS011;69702;44.618;33.604;2024-03-17T14:02:45;8.18;;;5.28;;
80384;SDS011;69702;44.618;33.604;2024-03-17T14:05:13;8.35;;;5.47;;
80384;SDS011;69702;44.618;33.604;2024-03-17T14:07:41;6.80;;;5.05;;
80384;SDS011;69702;44.618;33.604;2024-03-17T14:10:08;7.60;;;5.25;;
80384;SDS011;69702;44.618;33.604;2024-03-17T14:12:36;8.18;;;5.78;;
80384;SDS011;69702;44.618;33.604;2024-03-17T14:15:05;7.22;;;4.75;;
80384;SDS011;69702;44.618;33.604;2024-03-17T14:17:32;7.45;;;5.20;;
80384;SDS011;69702;44.618;33.604;2024-03-17T14:19:59;6.75;;;4.78;;
80384;SDS011;69702;44.618;33.604;2024-03-17T14:22:25;8.30;;;5.60;;
80384;SDS011;69702;44.618;33.604;2024-03-17T14:24:51;9.73;;;6.05;;
80384;SDS011;69702;44.618;33.604;2024-03-17T14:27:17;7.75;;;5.65;;
80384;SDS011;69702;44.618;33.604;2024-03-17T14:29:43;6.95;;;4.60;;
80384;SDS011;69702;44.618;33.604;2024-03-17T14:32:09;8.48;;;5.70;;
80384;SDS011;69702;44.618;33.604;2024-03-17T14:34:36;8.73;;;4.95;;
80384;SDS011;69702;44.618;33.604;2024-03-17T14:37:03;9.90;;;5.00;;
80384;SDS011;69702;44.618;33.604;2024-03-17T14:39:30;8.10;;;5.68;;